createdAt,value
2022-10-12T00:00:54.439Z,86.78
2022-10-12T00:06:16.721Z,86.65
2022-10-12T00:11:28.969Z,87.07
2022-10-12T00:16:32.208Z,87.63
2022-10-12T00:21:35.370Z,88.11
2022-10-12T00:26:38.586Z,82.24
2022-10-12T00:31:41.783Z,83.21
2022-10-12T00:36:44.973Z,87.91
2022-10-12T00:41:48.402Z,88.87
2022-10-12T00:46:52.660Z,88.47
2022-10-12T00:51:59.676Z,88.32
2022-10-12T00:57:05.380Z,88.27
2022-10-12T01:02:08.894Z,88.19
2022-10-12T01:07:12.232Z,88.10
2022-10-12T01:12:15.943Z,88.18
2022-10-12T01:17:29.297Z,88.20
2022-10-12T01:22:38.449Z,88.23
2022-10-12T01:27:48.593Z,88.05
2022-10-12T01:33:13.690Z,87.91
2022-10-12T01:38:39.015Z,87.70
2022-10-12T01:43:44.504Z,88.02
2022-10-12T01:48:49.529Z,87.93
2022-10-12T01:54:31.533Z,87.87
2022-10-12T01:59:53.087Z,88.17
2022-10-12T02:05:09.915Z,87.89
2022-10-12T02:10:18.664Z,87.92
2022-10-12T02:15:23.133Z,87.64
2022-10-12T02:20:28.189Z,87.38
2022-10-12T02:25:31.737Z,87.18
2022-10-12T02:30:36.142Z,86.92
2022-10-12T02:35:47.359Z,86.80
2022-10-12T02:40:55.920Z,86.54
2022-10-12T02:46:02.779Z,86.56
2022-10-12T02:51:09.974Z,86.59
2022-10-12T02:56:26.425Z,86.42
2022-10-12T03:01:31.384Z,85.95
2022-10-12T03:12:31.863Z,86.28
2022-10-12T03:18:15.667Z,85.92
2022-10-12T03:23:22.254Z,85.48
2022-10-12T03:28:33.018Z,85.61
2022-10-12T03:33:36.345Z,85.59
2022-10-12T03:38:39.682Z,85.46
2022-10-12T03:43:47.170Z,85.51
2022-10-12T03:48:50.507Z,85.61
2022-10-12T03:53:53.715Z,85.66
2022-10-12T03:58:57.007Z,85.62
2022-10-12T04:04:00.267Z,85.65
2022-10-12T04:09:04.125Z,85.82
2022-10-12T04:14:07.492Z,85.85
2022-10-12T04:19:12.712Z,85.85
2022-10-12T04:24:15.986Z,85.71
2022-10-12T04:29:19.285Z,85.61
2022-10-12T04:34:22.500Z,85.41
2022-10-12T04:39:25.786Z,85.22
2022-10-12T04:44:32.148Z,85.33
2022-10-12T04:49:35.823Z,85.48
2022-10-12T04:54:39.211Z,85.41
2022-10-12T04:59:42.574Z,85.26
2022-10-12T05:04:45.733Z,85.37
2022-10-12T05:09:49.020Z,85.60
2022-10-12T05:14:55.100Z,85.62
2022-10-12T05:19:59.150Z,85.61
2022-10-12T05:25:02.627Z,85.49
2022-10-12T05:30:06.735Z,85.58
2022-10-12T05:35:10.573Z,85.69
2022-10-12T05:40:13.988Z,85.60
2022-10-12T05:45:17.690Z,85.57
2022-10-12T05:50:21.782Z,85.70
2022-10-12T05:55:25.077Z,85.89
2022-10-12T06:00:28.675Z,85.99
2022-10-12T06:05:32.746Z,85.95
2022-10-12T06:10:46.802Z,85.80
2022-10-12T06:15:50.354Z,85.37
2022-10-12T06:21:21.049Z,85.56
2022-10-12T06:26:18.398Z,85.40
2022-10-12T06:31:21.716Z,85.44
2022-10-12T06:36:25.060Z,85.26
2022-10-12T06:41:28.240Z,84.81
2022-10-12T06:46:31.518Z,84.14
2022-10-12T06:51:34.624Z,84.05
2022-10-12T06:56:38.647Z,84.25
2022-10-12T07:01:42.469Z,84.23
2022-10-12T07:06:45.819Z,83.92
2022-10-12T07:11:49.032Z,83.58
2022-10-12T07:16:55.291Z,83.37
2022-10-12T07:21:59.157Z,83.32
2022-10-12T07:27:05.174Z,83.43
2022-10-12T07:32:08.311Z,82.89
2022-10-12T07:37:11.530Z,81.94
2022-10-12T07:42:19.062Z,81.88
2022-10-12T07:47:22.874Z,81.46
2022-10-12T07:52:27.870Z,80.75
2022-10-12T07:57:30.982Z,80.58
2022-10-12T08:02:34.572Z,78.42
2022-10-12T08:07:38.127Z,77.08
2022-10-12T08:12:42.035Z,77.56
2022-10-12T08:17:45.523Z,77.46
2022-10-12T08:22:48.921Z,77.85
2022-10-12T08:27:53.779Z,78.22
2022-10-12T08:32:57.273Z,77.73
2022-10-12T08:38:00.956Z,77.48
2022-10-12T08:43:33.150Z,78.31
2022-10-12T08:48:48.955Z,77.99
2022-10-12T08:54:04.731Z,78.91
2022-10-12T08:59:13.218Z,77.54
2022-10-12T09:04:23.087Z,77.32
2022-10-12T09:09:47.799Z,77.60
2022-10-12T09:14:52.043Z,77.63
2022-10-12T09:20:06.415Z,77.26
2022-10-12T09:25:14.797Z,77.10
2022-10-12T09:30:19.148Z,76.50
2022-10-12T09:35:22.318Z,74.79
2022-10-12T09:40:33.001Z,73.67
2022-10-12T09:45:38.904Z,72.75
2022-10-12T09:50:46.349Z,75.37
2022-10-12T09:56:13.082Z,73.82
2022-10-12T10:01:21.808Z,72.84
2022-10-12T10:06:25.581Z,73.69
2022-10-12T10:11:31.369Z,69.95
2022-10-12T10:16:34.467Z,68.87
2022-10-12T10:21:38.504Z,68.16
2022-10-12T10:26:52.102Z,64.95
2022-10-12T10:32:14.260Z,66.79
2022-10-12T10:37:19.350Z,68.64
2022-10-12T10:42:23.330Z,64.68
2022-10-12T10:47:26.366Z,65.73
2022-10-12T10:52:32.475Z,65.67
2022-10-12T10:57:36.066Z,66.26
2022-10-12T11:02:49.830Z,62.32
2022-10-12T11:07:53.237Z,65.08
2022-10-12T11:13:04.174Z,65.18
2022-10-12T11:18:22.384Z,65.46
2022-10-12T11:23:31.483Z,62.47
2022-10-12T11:28:34.796Z,63.85
2022-10-12T11:33:39.251Z,64.06
2022-10-12T11:38:47.436Z,62.40
2022-10-12T11:43:53.197Z,60.77
2022-10-12T11:48:57.689Z,64.75
2022-10-12T11:54:04.430Z,64.65
2022-10-12T11:59:13.028Z,62.68
2022-10-12T12:09:50.511Z,62.26
2022-10-12T12:14:54.231Z,57.82
2022-10-12T12:20:01.254Z,62.51
2022-10-12T12:25:04.803Z,59.88
2022-10-12T12:30:20.620Z,60.85
2022-10-12T12:35:23.761Z,61.87
2022-10-12T12:40:26.936Z,58.17
2022-10-12T12:45:33.093Z,59.02
2022-10-12T12:50:36.915Z,61.24
2022-10-12T12:55:49.828Z,62.10
2022-10-12T13:00:53.088Z,60.97
2022-10-12T13:06:15.301Z,61.40
2022-10-12T13:11:37.616Z,62.39
2022-10-12T13:22:13.522Z,61.51
2022-10-12T13:27:19.991Z,61.37
2022-10-12T13:32:43.363Z,60.94
2022-10-12T13:38:00.344Z,60.86
2022-10-12T13:43:20.686Z,62.22
2022-10-12T13:48:46.431Z,60.88
2022-10-12T13:53:48.477Z,60.70
2022-10-12T13:58:55.658Z,59.54
2022-10-12T14:04:02.463Z,60.38
2022-10-12T14:09:14.375Z,61.99
2022-10-12T14:14:23.651Z,59.48
2022-10-12T14:19:42.711Z,58.88
2022-10-12T14:24:45.911Z,59.47
2022-10-12T14:29:49.152Z,59.92
2022-10-12T14:35:12.458Z,58.42
2022-10-12T14:40:33.249Z,59.52
2022-10-12T14:45:42.881Z,59.38
2022-10-12T14:51:23.046Z,58.43
2022-10-12T14:56:26.388Z,58.91
2022-10-12T15:01:45.168Z,58.82
2022-10-12T15:07:23.094Z,59.79
2022-10-12T15:12:32.052Z,59.45
2022-10-12T15:17:37.595Z,60.14
2022-10-12T15:22:57.880Z,61.27
2022-10-12T15:28:17.595Z,60.89
2022-10-12T15:33:29.244Z,60.96
2022-10-12T15:39:06.517Z,61.56
2022-10-12T15:44:14.624Z,62.34
2022-10-12T15:49:20.351Z,62.81
2022-10-12T15:54:23.454Z,63.58
2022-10-12T15:59:31.014Z,64.07
2022-10-12T16:05:00.594Z,65.02
2022-10-12T16:10:04.332Z,66.54
2022-10-12T16:15:37.048Z,67.44
2022-10-12T16:20:52.469Z,68.57
2022-10-12T16:26:04.273Z,69.60
2022-10-12T16:31:10.626Z,70.19
2022-10-12T16:36:18.051Z,70.80
2022-10-12T16:41:23.966Z,71.46
2022-10-12T16:46:27.206Z,72.16
2022-10-12T16:51:34.266Z,72.95
2022-10-12T16:56:45.511Z,73.53
2022-10-12T17:02:04.743Z,74.32
2022-10-12T17:07:07.967Z,75.06
2022-10-12T17:12:12.013Z,75.25
2022-10-12T17:17:15.283Z,75.89
2022-10-12T17:22:22.642Z,76.15
2022-10-12T17:27:29.976Z,76.99
2022-10-12T17:32:51.770Z,77.70
2022-10-12T17:37:56.460Z,78.21
2022-10-12T17:43:05.254Z,79.18
2022-10-12T17:48:18.591Z,80.16
2022-10-12T17:53:41.942Z,80.28
2022-10-12T17:58:54.827Z,80.42
2022-10-12T18:04:05.590Z,80.55
2022-10-12T18:09:10.946Z,80.77
2022-10-12T18:14:20.443Z,80.98
2022-10-12T18:19:23.755Z,81.12
2022-10-12T18:24:41.711Z,81.19
2022-10-12T18:29:47.599Z,81.32
2022-10-12T18:34:54.077Z,81.69
2022-10-12T18:40:12.030Z,81.91
2022-10-12T18:45:18.503Z,81.71
2022-10-12T18:50:25.174Z,81.86
2022-10-12T18:55:47.788Z,82.56
2022-10-12T19:01:16.290Z,82.92
2022-10-12T19:06:34.561Z,83.25
2022-10-12T19:11:54.372Z,83.75
2022-10-12T19:17:06.289Z,84.07
2022-10-12T19:22:13.160Z,84.27
2022-10-12T19:27:25.119Z,84.50
2022-10-12T19:32:30.514Z,85.17
2022-10-12T19:37:50.952Z,85.17
2022-10-12T19:43:00.733Z,85.23
2022-10-12T19:48:06.964Z,85.30
2022-10-12T19:53:17.511Z,85.53
2022-10-12T19:58:25.612Z,85.60
2022-10-12T20:03:33.420Z,85.68
2022-10-12T20:08:57.191Z,85.81
2022-10-12T20:14:03.431Z,85.89
2022-10-12T20:19:07.506Z,86.00
2022-10-12T20:24:14.144Z,86.28
2022-10-12T20:29:19.034Z,86.74
2022-10-12T20:34:30.992Z,87.29
2022-10-12T20:39:54.398Z,87.20
2022-10-12T20:45:08.988Z,87.29
2022-10-12T20:50:16.179Z,87.94
2022-10-12T20:55:20.674Z,88.06
2022-10-12T21:00:24.724Z,87.85
2022-10-12T21:05:28.041Z,87.87
2022-10-12T21:10:31.307Z,87.72
2022-10-12T21:15:38.295Z,87.87
2022-10-12T21:20:46.010Z,87.89
2022-10-12T21:25:51.290Z,87.86
2022-10-12T21:30:57.371Z,87.91
2022-10-12T21:36:17.323Z,88.02
2022-10-12T21:41:26.056Z,87.80
2022-10-12T21:46:30.269Z,87.84
2022-10-12T21:51:36.744Z,88.10
2022-10-12T21:56:40.269Z,88.15
2022-10-12T22:01:46.482Z,88.19
2022-10-12T22:06:58.317Z,88.18
2022-10-12T22:12:08.879Z,88.55
2022-10-12T22:17:12.241Z,88.76
2022-10-12T22:22:16.214Z,88.78
2022-10-12T22:27:19.692Z,88.87
2022-10-12T22:32:22.925Z,88.58
2022-10-12T22:37:26.091Z,88.46
2022-10-12T22:42:29.362Z,88.62
2022-10-12T22:47:32.510Z,88.90
2022-10-12T22:52:38.756Z,89.11
2022-10-12T22:57:42.944Z,89.34
2022-10-12T23:02:46.063Z,89.39
2022-10-12T23:07:49.754Z,89.35
2022-10-12T23:12:53.049Z,89.42
2022-10-12T23:17:56.209Z,89.50
2022-10-12T23:22:59.419Z,89.65
2022-10-12T23:28:02.589Z,89.84
2022-10-12T23:33:05.838Z,90.18
2022-10-12T23:38:09.067Z,90.11
2022-10-12T23:43:12.750Z,90.14
2022-10-12T23:48:15.919Z,90.35
2022-10-12T23:53:22.738Z,90.36
2022-10-12T23:58:25.922Z,90.47
